sensor_id;sensor_type;location;lat;lon;timestamp;P1;durP1;ratioP1;P2;durP2;ratioP2
49340;SDS011;35209;51.050;13.678;2024-02-16T00:00:33;11.65;;;10.55;;
49340;SDS011;35209;51.050;13.678;2024-02-16T00:05:35;13.10;;;11.77;;
49340;SDS011;35209;51.050;13.678;2024-02-16T00:10:37;12.80;;;11.52;;
49340;SDS011;35209;51.050;13.678;2024-02-16T00:15:40;14.85;;;10.75;;
49340;SDS011;35209;51.050;13.678;2024-02-16T00:20:42;12.80;;;10.52;;
49340;SDS011;35209;51.050;13.678;2024-02-16T00:25:44;12.60;;;11.30;;
49340;SDS011;35209;51.050;13.678;2024-02-16T00:30:46;11.63;;;10.43;;
49340;SDS011;35209;51.050;13.678;2024-02-16T00:35:49;10.60;;;9.50;;
49340;SDS011;35209;51.050;13.678;2024-02-16T00:40:54;13.77;;;11.40;;
49340;SDS011;35209;51.050;13.678;2024-02-16T00:45:56;11.20;;;9.60;;
49340;SDS011;35209;51.050;13.678;2024-02-16T00:50:58;11.43;;;10.23;;
49340;SDS011;35209;51.050;13.678;2024-02-16T00:56:00;12.50;;;10.27;;
49340;SDS011;35209;51.050;13.678;2024-02-16T01:01:03;10.52;;;9.43;;
49340;SDS011;35209;51.050;13.678;2024-02-16T01:06:06;12.00;;;9.68;;
49340;SDS011;35209;51.050;13.678;2024-02-16T01:11:10;11.02;;;9.93;;
49340;SDS011;35209;51.050;13.678;2024-02-16T01:16:12;9.60;;;8.57;;
49340;SDS011;35209;51.050;13.678;2024-02-16T01:21:14;9.48;;;8.20;;
49340;SDS011;35209;51.050;13.678;2024-02-16T01:26:16;11.77;;;8.50;;
49340;SDS011;35209;51.050;13.678;2024-02-16T01:31:17;10.27;;;9.02;;
49340;SDS011;35209;51.050;13.678;2024-02-16T01:36:19;11.25;;;9.68;;
49340;SDS011;35209;51.050;13.678;2024-02-16T01:41:21;10.45;;;8.68;;
49340;SDS011;35209;51.050;13.678;2024-02-16T01:46:23;9.02;;;8.13;;
49340;SDS011;35209;51.050;13.678;2024-02-16T01:51:25;8.68;;;7.78;;
49340;SDS011;35209;51.050;13.678;2024-02-16T01:56:27;9.25;;;8.18;;
49340;SDS011;35209;51.050;13.678;2024-02-16T02:01:30;10.68;;;9.32;;
49340;SDS011;35209;51.050;13.678;2024-02-16T02:06:32;11.35;;;9.15;;
49340;SDS011;35209;51.050;13.678;2024-02-16T02:11:34;10.57;;;8.73;;
49340;SDS011;35209;51.050;13.678;2024-02-16T02:16:36;10.48;;;8.48;;
49340;SDS011;35209;51.050;13.678;2024-02-16T02:21:55;9.25;;;8.30;;
49340;SDS011;35209;51.050;13.678;2024-02-16T02:26:58;10.23;;;9.23;;
49340;SDS011;35209;51.050;13.678;2024-02-16T02:32:00;9.32;;;8.07;;
49340;SDS011;35209;51.050;13.678;2024-02-16T02:37:02;9.70;;;8.63;;
49340;SDS011;35209;51.050;13.678;2024-02-16T02:42:05;13.85;;;10.15;;
49340;SDS011;35209;51.050;13.678;2024-02-16T02:47:08;9.98;;;8.98;;
49340;SDS011;35209;51.050;13.678;2024-02-16T02:52:10;11.68;;;9.32;;
49340;SDS011;35209;51.050;13.678;2024-02-16T02:57:12;10.55;;;9.50;;
49340;SDS011;35209;51.050;13.678;2024-02-16T03:02:14;12.50;;;10.13;;
49340;SDS011;35209;51.050;13.678;2024-02-16T03:07:16;11.65;;;9.48;;
49340;SDS011;35209;51.050;13.678;2024-02-16T03:12:19;11.55;;;10.45;;
49340;SDS011;35209;51.050;13.678;2024-02-16T03:17:20;13.68;;;9.90;;
49340;SDS011;35209;51.050;13.678;2024-02-16T03:22:22;11.57;;;10.38;;
49340;SDS011;35209;51.050;13.678;2024-02-16T03:27:24;13.50;;;10.77;;
49340;SDS011;35209;51.050;13.678;2024-02-16T03:32:26;11.07;;;10.05;;
49340;SDS011;35209;51.050;13.678;2024-02-16T03:37:28;12.93;;;10.65;;
49340;SDS011;35209;51.050;13.678;2024-02-16T03:42:29;14.85;;;11.27;;
49340;SDS011;35209;51.050;13.678;2024-02-16T03:47:33;11.15;;;9.90;;
49340;SDS011;35209;51.050;13.678;2024-02-16T03:52:34;16.58;;;11.40;;
49340;SDS011;35209;51.050;13.678;2024-02-16T03:57:39;13.93;;;11.70;;
49340;SDS011;35209;51.050;13.678;2024-02-16T04:02:42;11.15;;;9.98;;
49340;SDS011;35209;51.050;13.678;2024-02-16T04:07:43;12.48;;;11.25;;
49340;SDS011;35209;51.050;13.678;2024-02-16T04:12:45;12.20;;;10.40;;
49340;SDS011;35209;51.050;13.678;2024-02-16T04:17:47;12.25;;;10.95;;
49340;SDS011;35209;51.050;13.678;2024-02-16T04:22:50;12.93;;;10.27;;
49340;SDS011;35209;51.050;13.678;2024-02-16T04:27:52;11.32;;;10.13;;
49340;SDS011;35209;51.050;13.678;2024-02-16T04:32:55;11.95;;;10.20;;
49340;SDS011;35209;51.050;13.678;2024-02-16T04:37:57;12.90;;;9.70;;
49340;SDS011;35209;51.050;13.678;2024-02-16T04:42:59;13.05;;;9.52;;
49340;SDS011;35209;51.050;13.678;2024-02-16T04:48:03;10.05;;;8.55;;
49340;SDS011;35209;51.050;13.678;2024-02-16T04:53:09;11.63;;;10.43;;
49340;SDS011;35209;51.050;13.678;2024-02-16T04:58:11;11.43;;;9.65;;
49340;SDS011;35209;51.050;13.678;2024-02-16T05:03:13;12.80;;;10.23;;
49340;SDS011;35209;51.050;13.678;2024-02-16T05:08:14;11.48;;;10.18;;
49340;SDS011;35209;51.050;13.678;2024-02-16T05:13:16;10.85;;;9.75;;
49340;SDS011;35209;51.050;13.678;2024-02-16T05:18:21;12.55;;;10.68;;
49340;SDS011;35209;51.050;13.678;2024-02-16T05:23:23;11.57;;;10.38;;
49340;SDS011;35209;51.050;13.678;2024-02-16T05:28:25;13.18;;;11.75;;
49340;SDS011;35209;51.050;13.678;2024-02-16T05:33:27;12.43;;;11.15;;
49340;SDS011;35209;51.050;13.678;2024-02-16T05:38:29;16.90;;;12.50;;
49340;SDS011;35209;51.050;13.678;2024-02-16T05:43:36;13.02;;;11.80;;
49340;SDS011;35209;51.050;13.678;2024-02-16T05:48:39;13.90;;;12.30;;
49340;SDS011;35209;51.050;13.678;2024-02-16T05:53:41;15.20;;;13.70;;
49340;SDS011;35209;51.050;13.678;2024-02-16T05:58:43;14.45;;;13.02;;
49340;SDS011;35209;51.050;13.678;2024-02-16T06:03:45;15.32;;;13.80;;
49340;SDS011;35209;51.050;13.678;2024-02-16T06:08:46;15.82;;;13.32;;
49340;SDS011;35209;51.050;13.678;2024-02-16T06:13:48;15.38;;;13.98;;
49340;SDS011;35209;51.050;13.678;2024-02-16T06:18:51;14.02;;;12.63;;
49340;SDS011;35209;51.050;13.678;2024-02-16T06:23:53;16.77;;;15.00;;
49340;SDS011;35209;51.050;13.678;2024-02-16T06:28:55;14.60;;;13.27;;
49340;SDS011;35209;51.050;13.678;2024-02-16T06:33:57;15.93;;;14.23;;
49340;SDS011;35209;51.050;13.678;2024-02-16T06:38:59;15.93;;;14.25;;
49340;SDS011;35209;51.050;13.678;2024-02-16T06:44:00;14.63;;;13.25;;
49340;SDS011;35209;51.050;13.678;2024-02-16T06:49:02;15.05;;;13.60;;
49340;SDS011;35209;51.050;13.678;2024-02-16T06:54:05;16.77;;;13.75;;
49340;SDS011;35209;51.050;13.678;2024-02-16T06:59:07;15.32;;;13.73;;
49340;SDS011;35209;51.050;13.678;2024-02-16T07:04:10;17.17;;;15.43;;
49340;SDS011;35209;51.050;13.678;2024-02-16T07:09:11;15.73;;;13.98;;
49340;SDS011;35209;51.050;13.678;2024-02-16T07:14:16;15.73;;;14.10;;
49340;SDS011;35209;51.050;13.678;2024-02-16T07:19:18;14.23;;;12.75;;
49340;SDS011;35209;51.050;13.678;2024-02-16T07:24:20;13.73;;;12.43;;
49340;SDS011;35209;51.050;13.678;2024-02-16T07:29:22;14.90;;;13.35;;
49340;SDS011;35209;51.050;13.678;2024-02-16T07:34:24;15.50;;;14.00;;
49340;SDS011;35209;51.050;13.678;2024-02-16T07:39:26;17.05;;;15.38;;
49340;SDS011;35209;51.050;13.678;2024-02-16T07:44:28;15.35;;;13.95;;
49340;SDS011;35209;51.050;13.678;2024-02-16T07:49:29;16.25;;;14.60;;
49340;SDS011;35209;51.050;13.678;2024-02-16T07:54:31;15.85;;;14.18;;
49340;SDS011;35209;51.050;13.678;2024-02-16T07:59:33;17.10;;;15.38;;
49340;SDS011;35209;51.050;13.678;2024-02-16T08:04:35;15.18;;;13.80;;
49340;SDS011;35209;51.050;13.678;2024-02-16T08:09:37;15.02;;;13.63;;
49340;SDS011;35209;51.050;13.678;2024-02-16T08:14:39;16.25;;;14.73;;
49340;SDS011;35209;51.050;13.678;2024-02-16T08:19:41;16.42;;;13.63;;
49340;SDS011;35209;51.050;13.678;2024-02-16T08:24:43;14.02;;;12.65;;
49340;SDS011;35209;51.050;13.678;2024-02-16T08:29:47;15.32;;;13.82;;
49340;SDS011;35209;51.050;13.678;2024-02-16T08:34:49;12.95;;;11.75;;
49340;SDS011;35209;51.050;13.678;2024-02-16T08:39:52;15.93;;;13.10;;
49340;SDS011;35209;51.050;13.678;2024-02-16T08:44:55;13.55;;;12.05;;
49340;SDS011;35209;51.050;13.678;2024-02-16T08:49:58;12.55;;;11.40;;
49340;SDS011;35209;51.050;13.678;2024-02-16T08:55:00;13.15;;;11.77;;
49340;SDS011;35209;51.050;13.678;2024-02-16T09:00:02;13.68;;;12.32;;
49340;SDS011;35209;51.050;13.678;2024-02-16T09:05:05;13.07;;;11.88;;
49340;SDS011;35209;51.050;13.678;2024-02-16T09:10:08;14.15;;;12.88;;
49340;SDS011;35209;51.050;13.678;2024-02-16T09:15:09;13.27;;;12.07;;
49340;SDS011;35209;51.050;13.678;2024-02-16T09:20:13;12.68;;;11.48;;
49340;SDS011;35209;51.050;13.678;2024-02-16T09:25:15;12.50;;;11.35;;
49340;SDS011;35209;51.050;13.678;2024-02-16T09:30:17;13.77;;;12.45;;
49340;SDS011;35209;51.050;13.678;2024-02-16T09:35:19;13.70;;;12.52;;
49340;SDS011;35209;51.050;13.678;2024-02-16T09:40:21;12.55;;;11.25;;
49340;SDS011;35209;51.050;13.678;2024-02-16T09:45:24;13.68;;;12.40;;
49340;SDS011;35209;51.050;13.678;2024-02-16T09:50:28;13.95;;;12.70;;
49340;SDS011;35209;51.050;13.678;2024-02-16T09:55:31;12.32;;;11.23;;
49340;SDS011;35209;51.050;13.678;2024-02-16T10:00:35;12.93;;;11.73;;
49340;SDS011;35209;51.050;13.678;2024-02-16T10:05:37;12.82;;;11.73;;
49340;SDS011;35209;51.050;13.678;2024-02-16T10:10:38;12.13;;;11.02;;
49340;SDS011;35209;51.050;13.678;2024-02-16T10:15:40;12.00;;;10.98;;
49340;SDS011;35209;51.050;13.678;2024-02-16T10:20:44;13.20;;;12.00;;
49340;SDS011;35209;51.050;13.678;2024-02-16T10:25:45;11.95;;;10.85;;
49340;SDS011;35209;51.050;13.678;2024-02-16T10:30:47;12.13;;;11.05;;
49340;SDS011;35209;51.050;13.678;2024-02-16T10:35:50;11.43;;;10.32;;
49340;SDS011;35209;51.050;13.678;2024-02-16T10:40:53;11.85;;;10.68;;
49340;SDS011;35209;51.050;13.678;2024-02-16T10:45:58;11.88;;;10.52;;
49340;SDS011;35209;51.050;13.678;2024-02-16T10:51:01;11.40;;;10.40;;
49340;SDS011;35209;51.050;13.678;2024-02-16T10:56:06;10.02;;;9.13;;
49340;SDS011;35209;51.050;13.678;2024-02-16T11:01:09;10.18;;;9.25;;
49340;SDS011;35209;51.050;13.678;2024-02-16T11:06:15;10.63;;;9.73;;
49340;SDS011;35209;51.050;13.678;2024-02-16T11:11:23;11.07;;;10.13;;
49340;SDS011;35209;51.050;13.678;2024-02-16T11:16:25;9.63;;;8.82;;
49340;SDS011;35209;51.050;13.678;2024-02-16T11:21:31;11.68;;;10.68;;
49340;SDS011;35209;51.050;13.678;2024-02-16T11:26:44;11.43;;;10.43;;
49340;SDS011;35209;51.050;13.678;2024-02-16T11:31:46;9.88;;;8.98;;
49340;SDS011;35209;51.050;13.678;2024-02-16T11:36:51;10.48;;;9.52;;
49340;SDS011;35209;51.050;13.678;2024-02-16T11:42:01;10.27;;;9.38;;
49340;SDS011;35209;51.050;13.678;2024-02-16T11:47:04;10.77;;;9.88;;
49340;SDS011;35209;51.050;13.678;2024-02-16T11:52:08;10.35;;;9.35;;
49340;SDS011;35209;51.050;13.678;2024-02-16T11:57:10;10.02;;;9.13;;
49340;SDS011;35209;51.050;13.678;2024-02-16T12:02:16;9.60;;;8.85;;
49340;SDS011;35209;51.050;13.678;2024-02-16T12:07:20;8.90;;;8.10;;
49340;SDS011;35209;51.050;13.678;2024-02-16T12:12:22;9.63;;;8.82;;
49340;SDS011;35209;51.050;13.678;2024-02-16T12:17:25;8.45;;;7.65;;
49340;SDS011;35209;51.050;13.678;2024-02-16T12:22:27;8.88;;;8.18;;
49340;SDS011;35209;51.050;13.678;2024-02-16T12:27:28;9.30;;;8.02;;
49340;SDS011;35209;51.050;13.678;2024-02-16T12:32:30;9.15;;;8.18;;
49340;SDS011;35209;51.050;13.678;2024-02-16T12:37:32;8.80;;;8.00;;
49340;SDS011;35209;51.050;13.678;2024-02-16T12:42:35;8.57;;;7.80;;
49340;SDS011;35209;51.050;13.678;2024-02-16T12:47:36;8.48;;;7.68;;
49340;SDS011;35209;51.050;13.678;2024-02-16T12:52:38;8.55;;;7.75;;
49340;SDS011;35209;51.050;13.678;2024-02-16T12:57:54;9.30;;;8.40;;
49340;SDS011;35209;51.050;13.678;2024-02-16T13:02:56;8.45;;;7.75;;
49340;SDS011;35209;51.050;13.678;2024-02-16T13:07:58;7.32;;;6.65;;
49340;SDS011;35209;51.050;13.678;2024-02-16T13:13:00;7.47;;;6.82;;
49340;SDS011;35209;51.050;13.678;2024-02-16T13:18:02;6.78;;;6.00;;
49340;SDS011;35209;51.050;13.678;2024-02-16T13:23:04;7.30;;;6.53;;
49340;SDS011;35209;51.050;13.678;2024-02-16T13:28:08;7.22;;;6.55;;
49340;SDS011;35209;51.050;13.678;2024-02-16T13:33:10;8.20;;;7.50;;
49340;SDS011;35209;51.050;13.678;2024-02-16T13:38:12;8.00;;;7.25;;
49340;SDS011;35209;51.050;13.678;2024-02-16T13:43:15;7.95;;;7.25;;
49340;SDS011;35209;51.050;13.678;2024-02-16T13:48:17;8.68;;;7.97;;
49340;SDS011;35209;51.050;13.678;2024-02-16T13:53:20;7.65;;;7.05;;
49340;SDS011;35209;51.050;13.678;2024-02-16T13:58:24;8.52;;;7.82;;
49340;SDS011;35209;51.050;13.678;2024-02-16T14:03:26;8.93;;;8.13;;
49340;SDS011;35209;51.050;13.678;2024-02-16T14:08:28;9.10;;;8.40;;
49340;SDS011;35209;51.050;13.678;2024-02-16T14:13:30;8.82;;;8.02;;
49340;SDS011;35209;51.050;13.678;2024-02-16T14:18:32;9.57;;;8.68;;
49340;SDS011;35209;51.050;13.678;2024-02-16T14:23:36;9.23;;;8.43;;
49340;SDS011;35209;51.050;13.678;2024-02-16T14:28:38;9.60;;;8.80;;
49340;SDS011;35209;51.050;13.678;2024-02-16T14:33:40;11.68;;;10.57;;
49340;SDS011;35209;51.050;13.678;2024-02-16T14:38:42;11.82;;;10.73;;
49340;SDS011;35209;51.050;13.678;2024-02-16T14:43:44;13.20;;;12.00;;
49340;SDS011;35209;51.050;13.678;2024-02-16T14:48:45;13.13;;;11.80;;
49340;SDS011;35209;51.050;13.678;2024-02-16T14:53:50;13.30;;;12.10;;
49340;SDS011;35209;51.050;13.678;2024-02-16T14:58:52;14.52;;;13.15;;
49340;SDS011;35209;51.050;13.678;2024-02-16T15:03:53;14.40;;;13.10;;
49340;SDS011;35209;51.050;13.678;2024-02-16T15:08:56;16.35;;;14.55;;
49340;SDS011;35209;51.050;13.678;2024-02-16T15:13:58;15.88;;;14.40;;
49340;SDS011;35209;51.050;13.678;2024-02-16T15:19:00;17.23;;;15.48;;
49340;SDS011;35209;51.050;13.678;2024-02-16T15:24:02;15.27;;;13.90;;
49340;SDS011;35209;51.050;13.678;2024-02-16T15:29:04;15.18;;;13.88;;
49340;SDS011;35209;51.050;13.678;2024-02-16T15:34:06;15.77;;;14.35;;
49340;SDS011;35209;51.050;13.678;2024-02-16T15:39:08;16.08;;;14.43;;
49340;SDS011;35209;51.050;13.678;2024-02-16T15:44:12;15.30;;;13.88;;
49340;SDS011;35209;51.050;13.678;2024-02-16T15:49:13;16.10;;;14.68;;
49340;SDS011;35209;51.050;13.678;2024-02-16T15:54:15;15.95;;;14.45;;
49340;SDS011;35209;51.050;13.678;2024-02-16T15:59:17;15.25;;;13.85;;
49340;SDS011;35209;51.050;13.678;2024-02-16T16:04:20;15.43;;;14.00;;
49340;SDS011;35209;51.050;13.678;2024-02-16T16:09:22;14.98;;;13.40;;
49340;SDS011;35209;51.050;13.678;2024-02-16T16:14:24;15.13;;;13.63;;
49340;SDS011;35209;51.050;13.678;2024-02-16T16:19:26;14.02;;;12.57;;
49340;SDS011;35209;51.050;13.678;2024-02-16T16:24:28;13.70;;;12.45;;
49340;SDS011;35209;51.050;13.678;2024-02-16T16:29:30;14.63;;;13.27;;
49340;SDS011;35209;51.050;13.678;2024-02-16T16:34:32;18.50;;;12.50;;
49340;SDS011;35209;51.050;13.678;2024-02-16T16:39:34;16.85;;;15.13;;
49340;SDS011;35209;51.050;13.678;2024-02-16T16:44:36;14.70;;;13.23;;
49340;SDS011;35209;51.050;13.678;2024-02-16T16:49:38;14.82;;;13.43;;
49340;SDS011;35209;51.050;13.678;2024-02-16T16:54:42;15.85;;;13.15;;
49340;SDS011;35209;51.050;13.678;2024-02-16T16:59:44;14.85;;;13.32;;
49340;SDS011;35209;51.050;13.678;2024-02-16T17:04:46;15.98;;;13.93;;
49340;SDS011;35209;51.050;13.678;2024-02-16T17:09:48;16.02;;;13.75;;
49340;SDS011;35209;51.050;13.678;2024-02-16T17:14:59;15.32;;;13.93;;
49340;SDS011;35209;51.050;13.678;2024-02-16T17:20:01;13.52;;;12.07;;
49340;SDS011;35209;51.050;13.678;2024-02-16T17:25:03;15.80;;;14.20;;
49340;SDS011;35209;51.050;13.678;2024-02-16T17:30:06;15.10;;;13.55;;
49340;SDS011;35209;51.050;13.678;2024-02-16T17:35:08;16.00;;;13.80;;
49340;SDS011;35209;51.050;13.678;2024-02-16T17:40:11;15.52;;;14.00;;
49340;SDS011;35209;51.050;13.678;2024-02-16T17:45:13;17.60;;;15.80;;
49340;SDS011;35209;51.050;13.678;2024-02-16T17:50:16;15.40;;;14.00;;
49340;SDS011;35209;51.050;13.678;2024-02-16T17:55:18;15.32;;;13.82;;
49340;SDS011;35209;51.050;13.678;2024-02-16T18:00:20;15.98;;;14.45;;
49340;SDS011;35209;51.050;13.678;2024-02-16T18:05:22;15.38;;;13.52;;
49340;SDS011;35209;51.050;13.678;2024-02-16T18:10:23;17.55;;;15.85;;
49340;SDS011;35209;51.050;13.678;2024-02-16T18:15:25;16.33;;;14.52;;
49340;SDS011;35209;51.050;13.678;2024-02-16T18:20:27;15.65;;;14.02;;
49340;SDS011;35209;51.050;13.678;2024-02-16T18:25:29;16.75;;;15.05;;
49340;SDS011;35209;51.050;13.678;2024-02-16T18:30:31;16.00;;;14.38;;
49340;SDS011;35209;51.050;13.678;2024-02-16T18:35:32;15.27;;;13.88;;
49340;SDS011;35209;51.050;13.678;2024-02-16T18:40:34;19.23;;;15.43;;
49340;SDS011;35209;51.050;13.678;2024-02-16T18:45:39;15.40;;;13.98;;
49340;SDS011;35209;51.050;13.678;2024-02-16T18:50:41;19.20;;;15.75;;
49340;SDS011;35209;51.050;13.678;2024-02-16T18:55:43;17.35;;;15.65;;
49340;SDS011;35209;51.050;13.678;2024-02-16T19:00:46;17.63;;;15.48;;
49340;SDS011;35209;51.050;13.678;2024-02-16T19:05:48;17.67;;;15.98;;
49340;SDS011;35209;51.050;13.678;2024-02-16T19:10:50;18.15;;;16.35;;
49340;SDS011;35209;51.050;13.678;2024-02-16T19:15:52;14.75;;;13.45;;
49340;SDS011;35209;51.050;13.678;2024-02-16T19:20:54;17.08;;;15.30;;
49340;SDS011;35209;51.050;13.678;2024-02-16T19:25:56;17.77;;;15.93;;
49340;SDS011;35209;51.050;13.678;2024-02-16T19:30:58;15.82;;;14.45;;
49340;SDS011;35209;51.050;13.678;2024-02-16T19:36:00;17.25;;;15.55;;
49340;SDS011;35209;51.050;13.678;2024-02-16T19:41:02;20.05;;;15.00;;
49340;SDS011;35209;51.050;13.678;2024-02-16T19:46:04;17.20;;;15.70;;
49340;SDS011;35209;51.050;13.678;2024-02-16T19:51:06;16.67;;;14.38;;
49340;SDS011;35209;51.050;13.678;2024-02-16T19:56:09;16.02;;;14.35;;
49340;SDS011;35209;51.050;13.678;2024-02-16T20:01:11;17.83;;;16.10;;
49340;SDS011;35209;51.050;13.678;2024-02-16T20:06:12;16.42;;;14.93;;
49340;SDS011;35209;51.050;13.678;2024-02-16T20:11:15;17.65;;;15.93;;
49340;SDS011;35209;51.050;13.678;2024-02-16T20:16:18;16.45;;;14.88;;
49340;SDS011;35209;51.050;13.678;2024-02-16T20:21:20;16.45;;;14.85;;
49340;SDS011;35209;51.050;13.678;2024-02-16T20:26:23;17.65;;;14.70;;
49340;SDS011;35209;51.050;13.678;2024-02-16T20:31:26;17.13;;;15.52;;
49340;SDS011;35209;51.050;13.678;2024-02-16T20:36:28;17.42;;;15.32;;
49340;SDS011;35209;51.050;13.678;2024-02-16T20:41:30;16.20;;;14.48;;
49340;SDS011;35209;51.050;13.678;2024-02-16T20:46:32;15.82;;;14.32;;
49340;SDS011;35209;51.050;13.678;2024-02-16T20:51:33;17.75;;;15.32;;
49340;SDS011;35209;51.050;13.678;2024-02-16T20:56:36;16.23;;;14.57;;
49340;SDS011;35209;51.050;13.678;2024-02-16T21:01:41;16.00;;;14.50;;
49340;SDS011;35209;51.050;13.678;2024-02-16T21:06:43;15.52;;;14.10;;
49340;SDS011;35209;51.050;13.678;2024-02-16T21:11:45;15.93;;;14.30;;
49340;SDS011;35209;51.050;13.678;2024-02-16T21:16:47;17.50;;;14.15;;
49340;SDS011;35209;51.050;13.678;2024-02-16T21:21:48;16.65;;;15.02;;
49340;SDS011;35209;51.050;13.678;2024-02-16T21:26:51;18.15;;;14.93;;
49340;SDS011;35209;51.050;13.678;2024-02-16T21:31:53;15.27;;;13.77;;
49340;SDS011;35209;51.050;13.678;2024-02-16T21:36:55;16.48;;;14.77;;
49340;SDS011;35209;51.050;13.678;2024-02-16T21:41:59;19.70;;;13.95;;
49340;SDS011;35209;51.050;13.678;2024-02-16T21:47:01;15.27;;;13.77;;
49340;SDS011;35209;51.050;13.678;2024-02-16T21:52:06;19.83;;;15.55;;
49340;SDS011;35209;51.050;13.678;2024-02-16T21:57:08;15.85;;;14.25;;
49340;SDS011;35209;51.050;13.678;2024-02-16T22:02:10;14.73;;;13.32;;
49340;SDS011;35209;51.050;13.678;2024-02-16T22:07:12;16.10;;;14.30;;
49340;SDS011;35209;51.050;13.678;2024-02-16T22:12:16;15.65;;;14.18;;
49340;SDS011;35209;51.050;13.678;2024-02-16T22:17:18;14.20;;;12.63;;
49340;SDS011;35209;51.050;13.678;2024-02-16T22:22:20;16.48;;;14.10;;
49340;SDS011;35209;51.050;13.678;2024-02-16T22:27:22;16.15;;;14.30;;
49340;SDS011;35209;51.050;13.678;2024-02-16T22:32:24;19.20;;;14.70;;
49340;SDS011;35209;51.050;13.678;2024-02-16T22:37:26;14.85;;;13.35;;
49340;SDS011;35209;51.050;13.678;2024-02-16T22:42:28;14.80;;;13.15;;
49340;SDS011;35209;51.050;13.678;2024-02-16T22:47:30;18.25;;;14.85;;
49340;SDS011;35209;51.050;13.678;2024-02-16T22:52:32;15.85;;;14.15;;
49340;SDS011;35209;51.050;13.678;2024-02-16T22:57:34;14.07;;;12.77;;
49340;SDS011;35209;51.050;13.678;2024-02-16T23:02:36;16.50;;;14.85;;
49340;SDS011;35209;51.050;13.678;2024-02-16T23:07:38;14.98;;;13.45;;
49340;SDS011;35209;51.050;13.678;2024-02-16T23:12:40;18.20;;;16.30;;
49340;SDS011;35209;51.050;13.678;2024-02-16T23:17:47;16.33;;;14.60;;
49340;SDS011;35209;51.050;13.678;2024-02-16T23:23:08;11.25;;;10.15;;
49340;SDS011;35209;51.050;13.678;2024-02-16T23:28:16;6.70;;;6.00;;
49340;SDS011;35209;51.050;13.678;2024-02-16T23:33:18;5.70;;;2.40;;
49340;SDS011;35209;51.050;13.678;2024-02-16T23:38:20;2.25;;;1.65;;
49340;SDS011;35209;51.050;13.678;2024-02-16T23:43:21;2.47;;;1.50;;
49340;SDS011;35209;51.050;13.678;2024-02-16T23:48:23;2.83;;;1.98;;
49340;SDS011;35209;51.050;13.678;2024-02-16T23:53:25;2.92;;;2.28;;
49340;SDS011;35209;51.050;13.678;2024-02-16T23:58:27;3.28;;;2.83;;
